createdAt,value
2023-04-30T00:00:51.833Z,17.50
2023-04-30T00:03:37.412Z,15.50
2023-04-30T00:06:09.453Z,16.30
2023-04-30T00:08:41.293Z,15.40
2023-04-30T00:11:13.068Z,15.10
2023-04-30T00:13:44.859Z,14.70
2023-04-30T00:16:16.686Z,14.80
2023-04-30T00:18:48.468Z,11.30
2023-04-30T00:21:20.301Z,11.10
2023-04-30T00:23:52.443Z,15.00
2023-04-30T00:26:24.284Z,15.10
2023-04-30T00:28:56.488Z,14.00
2023-04-30T00:31:28.726Z,14.40
2023-04-30T00:34:01.233Z,13.60
2023-04-30T00:36:33.332Z,10.10
2023-04-30T00:39:05.132Z,14.40
2023-04-30T00:41:37.950Z,13.20
2023-04-30T00:46:39.941Z,12.40
2023-04-30T00:49:11.820Z,9.90
2023-04-30T00:51:45.003Z,13.70
2023-04-30T00:54:17.661Z,13.50
2023-04-30T00:56:49.612Z,14.30
2023-04-30T00:59:22.109Z,13.00
2023-04-30T01:01:54.655Z,12.90
2023-04-30T01:04:27.184Z,14.00
2023-04-30T01:07:02.127Z,14.50
2023-04-30T01:09:34.206Z,14.50
2023-04-30T01:12:14.582Z,13.00
2023-04-30T01:14:58.328Z,12.50
2023-04-30T01:17:36.634Z,13.10
2023-04-30T01:20:12.594Z,13.30
2023-04-30T01:22:56.002Z,12.20
2023-04-30T01:25:46.140Z,12.40
2023-04-30T01:28:20.167Z,12.40
2023-04-30T01:30:52.985Z,12.20
2023-04-30T01:33:25.245Z,11.90
2023-04-30T01:36:21.231Z,8.90
2023-04-30T01:39:24.003Z,12.20
2023-04-30T01:42:05.017Z,12.60
2023-04-30T01:44:50.217Z,11.90
2023-04-30T01:47:32.042Z,12.10
2023-04-30T01:50:14.794Z,12.50
2023-04-30T01:52:51.773Z,12.40
2023-04-30T01:55:29.453Z,12.00
2023-04-30T01:58:03.950Z,12.30
2023-04-30T02:00:36.250Z,12.00
2023-04-30T02:03:08.286Z,12.20
2023-04-30T02:05:40.389Z,12.40
2023-04-30T02:08:12.399Z,11.80
2023-04-30T02:10:44.525Z,8.10
2023-04-30T02:13:16.532Z,11.50
2023-04-30T02:15:48.578Z,9.40
2023-04-30T02:18:20.440Z,11.10
2023-04-30T02:20:52.180Z,11.40
2023-04-30T02:23:24.185Z,12.60
2023-04-30T02:25:55.961Z,12.10
2023-04-30T02:28:27.814Z,11.00
2023-04-30T02:30:59.794Z,11.10
2023-04-30T02:33:31.667Z,10.80
2023-04-30T02:36:03.863Z,7.70
2023-04-30T02:38:35.620Z,11.10
2023-04-30T02:41:07.439Z,11.50
2023-04-30T02:43:39.158Z,10.70
2023-04-30T02:46:10.916Z,12.00
2023-04-30T02:48:42.652Z,7.70
2023-04-30T02:51:14.491Z,10.80
2023-04-30T02:53:46.157Z,10.40
2023-04-30T02:56:18.064Z,10.00
2023-04-30T02:58:49.821Z,11.50
2023-04-30T03:01:21.662Z,11.10
2023-04-30T03:03:53.968Z,10.60
2023-04-30T03:06:25.887Z,10.40
2023-04-30T03:08:57.628Z,11.20
2023-04-30T03:11:29.485Z,11.10
2023-04-30T03:16:32.364Z,9.50
2023-04-30T03:19:04.357Z,11.10
2023-04-30T03:21:36.103Z,8.80
2023-04-30T03:24:08.595Z,10.70
2023-04-30T03:26:41.797Z,10.60
2023-04-30T03:29:13.859Z,10.70
2023-04-30T03:31:45.526Z,10.50
2023-04-30T03:34:17.444Z,10.50
2023-04-30T03:36:49.155Z,10.30
2023-04-30T03:39:21.047Z,9.30
2023-04-30T03:41:52.847Z,10.20
2023-04-30T03:44:24.636Z,10.50
2023-04-30T03:46:56.417Z,9.40
2023-04-30T03:49:28.161Z,10.40
2023-04-30T03:52:00.142Z,10.70
2023-04-30T03:54:33.833Z,7.80
2023-04-30T03:57:07.671Z,9.80
2023-04-30T03:59:39.464Z,11.10
2023-04-30T04:02:11.864Z,9.80
2023-04-30T04:04:44.187Z,10.60
2023-04-30T04:07:16.146Z,9.80
2023-04-30T04:09:48.190Z,9.90
2023-04-30T04:12:20.198Z,9.90
2023-04-30T04:14:52.099Z,10.10
2023-04-30T04:17:23.892Z,9.70
2023-04-30T04:19:56.028Z,10.10
2023-04-30T04:22:28.165Z,10.30
2023-04-30T04:25:00.097Z,6.10
2023-04-30T04:27:32.045Z,9.80
2023-04-30T04:30:04.805Z,6.60
2023-04-30T04:32:42.178Z,9.30
2023-04-30T04:35:14.367Z,9.80
2023-04-30T04:37:46.420Z,9.80
2023-04-30T04:40:18.584Z,9.60
2023-04-30T04:42:53.017Z,9.80
2023-04-30T04:45:24.786Z,9.40
2023-04-30T04:47:56.619Z,9.00
2023-04-30T04:50:28.633Z,6.10
2023-04-30T04:53:00.443Z,9.50
2023-04-30T04:55:32.500Z,6.00
2023-04-30T04:58:04.259Z,9.40
2023-04-30T05:00:36.004Z,9.40
2023-04-30T05:03:09.402Z,8.50
2023-04-30T05:05:41.466Z,7.70
2023-04-30T05:08:13.223Z,8.00
2023-04-30T05:10:44.962Z,7.40
2023-04-30T05:13:16.945Z,9.10
2023-04-30T05:15:49.080Z,8.20
2023-04-30T05:18:20.980Z,5.80
2023-04-30T05:20:52.786Z,7.40
2023-04-30T05:23:24.548Z,8.00
2023-04-30T05:25:57.107Z,9.00
2023-04-30T05:28:28.832Z,7.80
2023-04-30T05:31:00.724Z,4.90
2023-04-30T05:33:32.489Z,7.30
2023-04-30T05:36:04.611Z,5.10
2023-04-30T05:38:36.329Z,8.00
2023-04-30T05:41:08.307Z,5.20
2023-04-30T05:43:40.050Z,5.90
2023-04-30T05:46:11.845Z,6.50
2023-04-30T05:48:43.609Z,6.30
2023-04-30T05:51:15.929Z,5.40
2023-04-30T05:53:48.097Z,5.20
2023-04-30T05:56:19.885Z,4.40
2023-04-30T05:58:52.550Z,5.40
2023-04-30T06:03:55.410Z,5.50
2023-04-30T06:06:27.950Z,5.00
2023-04-30T06:08:59.864Z,4.70
2023-04-30T06:11:32.172Z,5.20
2023-04-30T06:14:05.067Z,5.30
2023-04-30T06:16:36.950Z,5.00
2023-04-30T06:19:09.130Z,5.00
2023-04-30T06:21:43.536Z,5.30
2023-04-30T06:24:15.529Z,4.70
2023-04-30T06:26:47.313Z,5.10
2023-04-30T06:29:19.014Z,5.00
2023-04-30T06:31:50.971Z,4.70
2023-04-30T06:34:22.927Z,3.20
2023-04-30T06:36:54.693Z,4.20
2023-04-30T06:39:26.475Z,4.90
2023-04-30T06:41:58.268Z,3.90
2023-04-30T06:44:33.112Z,4.40
2023-04-30T06:47:04.835Z,4.30
2023-04-30T06:49:36.553Z,4.10
2023-04-30T06:52:08.425Z,3.80
2023-04-30T06:54:40.591Z,4.20
2023-04-30T06:57:12.581Z,3.20
2023-04-30T06:59:44.288Z,2.90
2023-04-30T07:02:16.255Z,3.40
2023-04-30T07:04:49.457Z,3.80
2023-04-30T07:07:21.778Z,3.40
2023-04-30T07:09:53.789Z,3.50
2023-04-30T07:12:26.095Z,3.30
2023-04-30T07:14:57.915Z,3.40
2023-04-30T07:17:29.883Z,3.80
2023-04-30T07:20:01.707Z,3.70
2023-04-30T07:22:33.606Z,3.40
2023-04-30T07:25:06.885Z,3.00
2023-04-30T07:27:38.819Z,3.20
2023-04-30T07:30:11.862Z,2.40
2023-04-30T07:32:43.840Z,3.30
2023-04-30T07:35:15.949Z,3.50
2023-04-30T07:37:47.943Z,4.70
2023-04-30T07:40:29.038Z,3.70
2023-04-30T07:43:07.060Z,3.00
2023-04-30T07:45:39.017Z,2.20
2023-04-30T07:48:10.957Z,3.30
2023-04-30T07:50:42.792Z,3.70
2023-04-30T07:53:14.530Z,3.30
2023-04-30T07:55:46.628Z,3.40
2023-04-30T07:58:18.513Z,3.00
2023-04-30T08:00:50.345Z,3.70
2023-04-30T08:03:22.334Z,3.70
2023-04-30T08:05:54.616Z,2.90
2023-04-30T08:08:26.438Z,4.00
2023-04-30T08:10:58.203Z,3.30
2023-04-30T08:13:30.844Z,3.30
2023-04-30T08:18:33.288Z,3.70
2023-04-30T08:21:05.749Z,3.10
2023-04-30T08:23:37.667Z,3.40
2023-04-30T08:26:09.803Z,3.50
2023-04-30T08:28:41.818Z,3.30
2023-04-30T08:31:13.721Z,3.30
2023-04-30T08:33:45.578Z,2.90
2023-04-30T08:36:17.389Z,3.30
2023-04-30T08:38:49.471Z,3.30
2023-04-30T08:41:26.697Z,3.30
2023-04-30T08:44:02.275Z,2.80
2023-04-30T08:46:37.628Z,3.10
2023-04-30T08:49:09.996Z,3.30
2023-04-30T08:51:42.791Z,2.70
2023-04-30T08:56:47.820Z,3.30
2023-04-30T08:59:19.796Z,3.00
2023-04-30T09:01:53.813Z,3.00
2023-04-30T09:04:26.217Z,3.10
2023-04-30T09:06:59.688Z,2.90
2023-04-30T09:09:38.642Z,3.20
2023-04-30T09:12:20.109Z,2.40
2023-04-30T09:15:03.509Z,1.60
2023-04-30T09:20:14.301Z,2.10
2023-04-30T09:22:46.125Z,2.40
2023-04-30T09:25:17.929Z,1.50
2023-04-30T09:27:49.781Z,2.40
2023-04-30T09:30:34.615Z,2.80
2023-04-30T09:33:08.680Z,2.60
2023-04-30T09:35:43.323Z,1.90
2023-04-30T09:38:29.566Z,2.80
2023-04-30T09:41:02.909Z,2.40
2023-04-30T09:43:34.785Z,2.40
2023-04-30T09:46:06.611Z,1.80
2023-04-30T09:48:42.413Z,2.10
2023-04-30T09:51:14.300Z,2.50
2023-04-30T09:53:46.803Z,2.20
2023-04-30T09:56:23.847Z,1.90
2023-04-30T09:58:58.513Z,2.20
2023-04-30T10:01:30.837Z,2.30
2023-04-30T10:04:03.458Z,2.30
2023-04-30T10:06:35.898Z,2.40
2023-04-30T10:09:11.840Z,2.50
2023-04-30T10:11:44.518Z,2.40
2023-04-30T10:16:55.907Z,2.20
2023-04-30T10:19:32.089Z,2.30
2023-04-30T10:22:05.222Z,2.30
2023-04-30T10:24:37.752Z,2.40
2023-04-30T10:27:09.850Z,2.40
2023-04-30T10:29:41.603Z,2.10
2023-04-30T10:32:15.025Z,2.50
2023-04-30T10:34:56.509Z,2.50
2023-04-30T10:37:33.673Z,2.80
2023-04-30T10:40:09.122Z,2.40
2023-04-30T10:42:49.091Z,2.20
2023-04-30T10:45:35.299Z,2.60
2023-04-30T10:48:08.439Z,2.30
2023-04-30T10:50:46.281Z,2.60
2023-04-30T10:53:22.847Z,2.40
2023-04-30T10:55:58.953Z,2.90
2023-04-30T10:58:34.364Z,2.20
2023-04-30T11:01:10.864Z,2.00
2023-04-30T11:03:44.268Z,2.30
2023-04-30T11:06:20.337Z,2.50
2023-04-30T11:08:52.272Z,2.10
2023-04-30T11:11:24.150Z,2.60
2023-04-30T11:14:02.711Z,3.00
2023-04-30T11:16:36.785Z,2.70
2023-04-30T11:19:14.953Z,2.40
2023-04-30T11:22:21.029Z,2.00
2023-04-30T11:25:05.395Z,2.60
2023-04-30T11:27:38.281Z,2.50
2023-04-30T11:32:48.991Z,2.60
2023-04-30T11:35:21.753Z,2.10
2023-04-30T11:40:28.455Z,2.50
2023-04-30T11:43:00.301Z,2.40
2023-04-30T11:45:32.364Z,2.20
2023-04-30T11:48:04.526Z,2.00
2023-04-30T11:50:43.729Z,2.50
2023-04-30T11:53:15.588Z,2.10
2023-04-30T11:55:47.386Z,2.50
2023-04-30T11:58:20.754Z,2.70
2023-04-30T12:00:53.516Z,2.90
2023-04-30T12:03:25.827Z,2.60
2023-04-30T12:05:58.221Z,3.50
2023-04-30T12:08:30.161Z,2.50
2023-04-30T12:11:02.145Z,2.20
2023-04-30T12:13:35.261Z,2.80
2023-04-30T12:16:07.873Z,3.00
2023-04-30T12:18:39.624Z,3.10
2023-04-30T12:21:11.741Z,3.60
2023-04-30T12:23:45.141Z,2.30
2023-04-30T12:26:17.821Z,2.70
2023-04-30T12:28:52.694Z,2.50
2023-04-30T12:31:24.561Z,2.80
2023-04-30T12:33:59.693Z,2.40
2023-04-30T12:36:36.873Z,2.60
2023-04-30T12:39:13.269Z,2.50
2023-04-30T12:41:46.468Z,2.60
2023-04-30T12:44:20.733Z,2.40
2023-04-30T12:46:56.327Z,2.40
2023-04-30T12:49:30.470Z,2.80
2023-04-30T12:52:04.265Z,2.50
2023-04-30T12:54:37.431Z,2.20
2023-04-30T12:57:10.821Z,2.40
2023-04-30T12:59:59.787Z,2.90
2023-04-30T13:02:32.307Z,3.00
2023-04-30T13:07:40.712Z,2.70
2023-04-30T13:10:13.834Z,3.10
2023-04-30T13:12:45.535Z,3.10
2023-04-30T13:15:17.856Z,2.80
2023-04-30T13:17:50.072Z,2.80
2023-04-30T13:20:22.013Z,2.80
2023-04-30T13:22:53.925Z,2.90
2023-04-30T13:25:25.914Z,2.50
2023-04-30T13:30:29.755Z,2.60
2023-04-30T13:33:01.683Z,3.10
2023-04-30T13:35:33.473Z,2.40
2023-04-30T13:38:05.279Z,2.90
2023-04-30T13:40:37.142Z,2.70
2023-04-30T13:43:08.908Z,2.40
2023-04-30T13:45:41.014Z,2.70
2023-04-30T13:48:12.817Z,2.60
2023-04-30T13:50:44.619Z,2.80
2023-04-30T13:53:16.348Z,2.60
2023-04-30T13:55:48.043Z,2.40
2023-04-30T13:58:19.796Z,2.60
2023-04-30T14:00:51.554Z,2.80
2023-04-30T14:03:23.422Z,2.80
2023-04-30T14:05:55.548Z,2.50
2023-04-30T14:08:27.331Z,2.60
2023-04-30T14:10:59.169Z,3.30
2023-04-30T14:13:31.138Z,3.00
2023-04-30T14:16:03.057Z,3.20
2023-04-30T14:18:35.055Z,2.90
2023-04-30T14:21:07.517Z,3.50
2023-04-30T14:26:10.617Z,3.20
2023-04-30T14:28:42.440Z,2.10
2023-04-30T14:31:14.313Z,3.40
2023-04-30T14:33:46.539Z,3.60
2023-04-30T14:36:18.625Z,3.20
2023-04-30T14:38:50.410Z,2.70
2023-04-30T14:41:22.269Z,3.30
2023-04-30T14:43:54.135Z,3.30
2023-04-30T14:46:26.467Z,3.80
2023-04-30T14:48:58.485Z,3.30
2023-04-30T14:51:30.743Z,2.70
2023-04-30T14:54:03.428Z,3.50
2023-04-30T14:59:06.077Z,3.40
2023-04-30T15:01:37.891Z,3.00
2023-04-30T15:04:10.138Z,2.60
2023-04-30T15:06:42.176Z,3.50
2023-04-30T15:09:14.172Z,3.30
2023-04-30T15:11:46.199Z,3.10
2023-04-30T15:14:17.983Z,3.00
2023-04-30T15:16:49.872Z,3.50
2023-04-30T15:19:21.765Z,3.30
2023-04-30T15:21:53.552Z,3.20
2023-04-30T15:24:26.017Z,3.20
2023-04-30T15:26:58.609Z,3.00
2023-04-30T15:32:01.207Z,3.20
2023-04-30T15:34:33.030Z,3.70
2023-04-30T15:37:05.840Z,3.80
2023-04-30T15:39:38.054Z,2.60
2023-04-30T15:42:09.805Z,3.20
2023-04-30T15:44:41.751Z,2.90
2023-04-30T15:47:13.893Z,4.90
2023-04-30T15:49:45.676Z,3.20
2023-04-30T15:52:17.417Z,3.30
2023-04-30T15:54:49.895Z,3.30
2023-04-30T15:57:21.950Z,2.80
2023-04-30T15:59:54.934Z,2.70
2023-04-30T16:02:27.194Z,2.90
2023-04-30T16:04:59.177Z,2.80
2023-04-30T16:07:31.876Z,3.00
2023-04-30T16:12:35.107Z,2.80
2023-04-30T16:15:08.740Z,3.00
2023-04-30T16:17:40.966Z,2.60
2023-04-30T16:20:14.300Z,2.90
2023-04-30T16:22:46.060Z,3.10
2023-04-30T16:25:17.864Z,2.40
2023-04-30T16:27:50.205Z,2.70
2023-04-30T16:30:22.286Z,2.60
2023-04-30T16:32:54.293Z,2.80
2023-04-30T16:35:26.786Z,2.70
2023-04-30T16:37:59.218Z,2.70
2023-04-30T16:40:31.726Z,2.60
2023-04-30T16:45:34.204Z,3.00
2023-04-30T16:48:06.333Z,2.80
2023-04-30T16:50:38.321Z,2.80
2023-04-30T16:53:11.103Z,3.00
2023-04-30T16:55:44.421Z,3.60
2023-04-30T16:58:16.689Z,3.10
2023-04-30T17:00:49.814Z,2.80
2023-04-30T17:03:21.873Z,3.90
2023-04-30T17:05:54.463Z,3.30
2023-04-30T17:10:56.708Z,2.50
2023-04-30T17:13:30.765Z,3.00
2023-04-30T17:16:02.793Z,3.60
2023-04-30T17:18:34.687Z,2.70
2023-04-30T17:21:06.742Z,4.30
2023-04-30T17:23:38.585Z,2.70
2023-04-30T17:26:10.750Z,3.20
2023-04-30T17:28:42.530Z,3.10
2023-04-30T17:31:14.495Z,3.70
2023-04-30T17:33:46.462Z,5.10
2023-04-30T17:36:18.684Z,4.00
2023-04-30T17:38:50.537Z,3.40
2023-04-30T17:41:22.262Z,3.30
2023-04-30T17:43:54.600Z,3.90
2023-04-30T17:46:26.848Z,4.00
2023-04-30T17:49:01.517Z,3.60
2023-04-30T17:51:33.716Z,3.80
2023-04-30T17:54:05.560Z,4.40
2023-04-30T17:56:38.790Z,3.80
2023-04-30T17:59:10.538Z,3.20
2023-04-30T18:01:42.427Z,3.80
2023-04-30T18:04:20.634Z,4.00
2023-04-30T18:06:52.701Z,3.80
2023-04-30T18:09:24.595Z,3.60
2023-04-30T18:11:58.736Z,3.50
2023-04-30T18:14:32.599Z,3.30
2023-04-30T18:17:04.422Z,4.30
2023-04-30T18:19:38.636Z,5.00
2023-04-30T18:22:10.405Z,3.90
2023-04-30T18:24:42.602Z,5.00
2023-04-30T18:27:15.921Z,4.90
2023-04-30T18:29:48.860Z,5.10
2023-04-30T18:32:20.585Z,4.50
2023-04-30T18:34:52.363Z,4.90
2023-04-30T18:37:24.351Z,5.40
2023-04-30T18:39:56.584Z,4.70
2023-04-30T18:42:30.096Z,5.30
2023-04-30T18:45:02.122Z,5.70
2023-04-30T18:47:34.222Z,6.30
2023-04-30T18:50:10.315Z,5.70
2023-04-30T18:52:42.838Z,7.70
2023-04-30T18:55:15.037Z,7.40
2023-04-30T18:57:47.104Z,6.60
2023-04-30T19:00:19.158Z,5.60
2023-04-30T19:02:52.465Z,5.00
2023-04-30T19:05:24.348Z,5.60
2023-04-30T19:07:56.095Z,5.50
2023-04-30T19:10:28.595Z,5.90
2023-04-30T19:13:00.477Z,5.70
2023-04-30T19:15:32.209Z,5.40
2023-04-30T19:18:04.057Z,5.90
2023-04-30T19:20:36.009Z,7.10
2023-04-30T19:23:09.340Z,7.10
2023-04-30T19:25:41.178Z,6.70
2023-04-30T19:28:14.593Z,7.60
2023-04-30T19:30:46.687Z,8.20
2023-04-30T19:33:18.543Z,8.90
2023-04-30T19:35:53.273Z,10.90
2023-04-30T19:38:25.017Z,11.20
2023-04-30T19:40:57.081Z,11.00
2023-04-30T19:43:28.926Z,10.20
2023-04-30T19:46:02.104Z,7.70
2023-04-30T19:48:34.042Z,7.90
2023-04-30T19:51:07.074Z,8.10
2023-04-30T19:53:39.047Z,7.90
2023-04-30T19:56:10.726Z,8.70
2023-04-30T19:58:43.856Z,7.30
2023-04-30T20:01:16.149Z,7.70
2023-04-30T20:03:48.659Z,7.50
2023-04-30T20:06:21.082Z,6.80
2023-04-30T20:08:53.094Z,7.30
2023-04-30T20:11:25.625Z,6.80
2023-04-30T20:13:58.068Z,7.90
2023-04-30T20:16:29.871Z,8.30
2023-04-30T20:19:01.659Z,8.00
2023-04-30T20:21:34.914Z,7.90
2023-04-30T20:24:07.547Z,8.00
2023-04-30T20:26:39.374Z,8.60
2023-04-30T20:29:11.487Z,8.60
2023-04-30T20:31:43.388Z,10.30
2023-04-30T20:34:15.364Z,10.90
2023-04-30T20:36:47.829Z,11.40
2023-04-30T20:39:19.709Z,11.50
2023-04-30T20:41:52.214Z,8.20
2023-04-30T20:44:26.746Z,12.80
2023-04-30T20:46:58.582Z,11.50
2023-04-30T20:49:30.417Z,12.40
2023-04-30T20:52:02.267Z,8.30
2023-04-30T20:54:34.250Z,12.80
2023-04-30T20:57:06.471Z,12.80
2023-04-30T20:59:39.104Z,12.60
2023-04-30T21:02:10.870Z,11.60
2023-04-30T21:04:42.773Z,11.50
2023-04-30T21:07:14.556Z,8.40
2023-04-30T21:09:46.522Z,10.80
2023-04-30T21:12:18.514Z,10.70
2023-04-30T21:14:50.221Z,9.10
2023-04-30T21:17:22.181Z,9.40
2023-04-30T21:19:55.108Z,6.80
2023-04-30T21:22:27.599Z,8.90
2023-04-30T21:24:59.284Z,5.70
2023-04-30T21:27:30.956Z,8.70
2023-04-30T21:30:03.368Z,7.20
2023-04-30T21:32:35.147Z,7.90
2023-04-30T21:35:08.139Z,8.00
2023-04-30T21:37:40.744Z,7.30
2023-04-30T21:40:13.619Z,6.60
2023-04-30T21:42:45.364Z,6.60
2023-04-30T21:45:17.036Z,6.90
2023-04-30T21:47:50.975Z,7.60
2023-04-30T21:50:23.709Z,6.90
2023-04-30T21:52:55.453Z,7.20
2023-04-30T21:55:27.644Z,6.60
2023-04-30T21:57:59.550Z,7.30
2023-04-30T22:00:31.408Z,4.70
2023-04-30T22:03:03.842Z,7.60
2023-04-30T22:05:35.784Z,6.90
2023-04-30T22:08:08.264Z,7.10
2023-04-30T22:10:39.989Z,6.30
2023-04-30T22:13:12.329Z,5.60
2023-04-30T22:15:48.106Z,6.50
2023-04-30T22:18:20.701Z,7.00
2023-04-30T22:20:53.723Z,6.90
2023-04-30T22:23:25.862Z,8.00
2023-04-30T22:25:57.590Z,5.00
2023-04-30T22:28:29.397Z,7.80
2023-04-30T22:31:01.494Z,7.10
2023-04-30T22:33:37.031Z,8.50
2023-04-30T22:36:10.424Z,8.00
2023-04-30T22:38:42.128Z,8.00
2023-04-30T22:41:13.809Z,8.60
2023-04-30T22:43:48.654Z,7.30
2023-04-30T22:46:20.348Z,7.50
2023-04-30T22:48:55.359Z,8.30
2023-04-30T22:51:27.587Z,8.00
2023-04-30T22:53:59.344Z,7.90
2023-04-30T22:56:31.063Z,8.30
2023-04-30T22:59:03.178Z,8.00
2023-04-30T23:01:35.802Z,9.00
2023-04-30T23:04:09.540Z,7.70
2023-04-30T23:06:42.759Z,7.70
2023-04-30T23:09:15.485Z,7.20
2023-04-30T23:11:48.154Z,6.80
2023-04-30T23:14:20.093Z,6.90
2023-04-30T23:16:51.918Z,7.50
2023-04-30T23:19:24.106Z,6.50
2023-04-30T23:21:56.871Z,6.90
2023-04-30T23:24:28.808Z,6.70
2023-04-30T23:27:00.616Z,6.00
2023-04-30T23:29:33.268Z,4.60
2023-04-30T23:32:06.297Z,6.40
2023-04-30T23:34:38.037Z,6.20
2023-04-30T23:37:09.682Z,5.90
2023-04-30T23:39:41.563Z,5.30
2023-04-30T23:42:13.626Z,5.20
2023-04-30T23:44:45.462Z,5.10
2023-04-30T23:47:17.885Z,5.70
2023-04-30T23:49:49.552Z,6.20
2023-04-30T23:52:21.387Z,5.70
2023-04-30T23:54:53.153Z,5.90
2023-04-30T23:57:25.834Z,5.20
